Flight Track Log - Related Links

Times and Time Zones

All times are in EDT time to prevent confusion due to time zone crossing. See the SWA3924 flight status page for this flight to view local times or setup timezone preferences in your user account.

Time Position Orientation Groundspeed Altitude Reporting Facility
EDT Latitude Longitude Course Direction KTS MPH feet Rate Location/Type
Tue 08:39:04 PM 33.9439 -118.4742 North 177 204 2,100  Level Los Center
Tue 08:40:06 PM 33.9392 -118.5522 266° West 230 265 4,200 3,024 Climbing Los Center
Tue 08:41:07 PM 33.9419 -118.6469 272° West 265 305 8,300 2,341 Climbing Los Center
Tue 08:42:09 PM 34.0039 -118.6997 325° Northwest 275 316 9,000 339 Climbing Los Center
Tue 08:43:11 PM 34.0828 -118.6764 14° North 292 336 9,000 823 Level Los Center
Tue 08:44:00 PM 34.2516 -118.6000 North  Level FlightAware
Tue 08:44:13 PM 34.1492 -118.6372 26° Northeast 293 337 10,700  Level Los Center
Tue 08:45:15 PM 34.2339 -118.6547 350° North 313 360 13,100 2,806 Climbing Los Center
Tue 08:46:17 PM 34.3275 -118.6883 343° North 345 397 16,500 3,097 Climbing Los Center
Tue 08:47:19 PM 34.4269 -118.7233 344° North 369 425 19,500 3,024 Climbing Los Center
Tue 08:48:20 PM 34.5528 -118.7692 343° North 394 453 22,700 2,683 Climbing Los Center
Tue 08:49:22 PM 34.6608 -118.8111 342° North 405 466 25,000 2,129 Climbing Los Center
Tue 08:50:24 PM 34.7742 -118.8514 344° North 418 481 27,100 2,129 Climbing Los Center
Tue 08:51:26 PM 34.8747 -118.9322 327° Northwest 434 499 29,400 2,195 Climbing Los Center
Tue 08:52:27 PM 34.9742 -119.0297 321° Northwest 426 490 31,600 1,902 Climbing Los Center
Tue 08:53:29 PM 35.0689 -119.1217 322° Northwest 436 502 33,300 1,742 Climbing Los Center
Tue 08:54:31 PM 35.1628 -119.2125 322° Northwest 435 501 35,200 1,306 Climbing Los Center
Tue 08:55:33 PM 35.2569 -119.3036 322° Northwest 434 499 36,000 390 Climbing Los Center
Tue 08:56:34 PM 35.3469 -119.3928 321° Northwest 424 488 36,000  Level Los Center
Tue 08:56:58 PM 35.3800 -119.4256 321° Northwest 416 479 36,000  Level Oakland Center
Tue 08:57:59 PM 35.4903 -119.5336 321° Northwest 423 487 36,000  Level Oakland Center
Tue 08:59:00 PM 35.5814 -119.6242 321° Northwest 424 488 36,000  Level Oakland Center
Tue 09:00:02 PM 35.6700 -119.7136 321° Northwest 418 481 36,000  Level Oakland Center
Tue 09:01:03 PM 35.7594 -119.8033 321° Northwest 418 481 36,000  Level Oakland Center
Tue 09:02:04 PM 35.8478 -119.8911 321° Northwest 412 474 36,000  Level Oakland Center
Tue 09:03:05 PM 35.9367 -119.9806 321° Northwest 414 476 36,000  Level Oakland Center
Tue 09:04:06 PM 36.0258 -120.0719 320° Northwest 418 481 36,000  Level Oakland Center
Tue 09:05:07 PM 36.1142 -120.1625 320° Northwest 415 478 36,000  Level Oakland Center
Tue 09:06:09 PM 36.2203 -120.2697 321° Northwest 412 474 36,000  Level Oakland Center
Tue 09:07:10 PM 36.3083 -120.3600 320° Northwest 412 474 36,000  Level Oakland Center
Tue 09:08:11 PM 36.3969 -120.4511 320° Northwest 415 478 36,000 -836 Level Oakland Center
Tue 09:09:12 PM 36.4842 -120.5386 321° Northwest 406 467 34,300 -2,410 Descending Oakland Center
Tue 09:10:13 PM 36.5739 -120.6331 320° Northwest 431 496 31,100 -3,000 Descending Oakland Center
Tue 09:11:14 PM 36.6653 -120.7278 320° Northwest 430 495 28,200 -2,634 Descending Oakland Center
Tue 09:12:16 PM 36.7553 -120.8233 320° Northwest 427 491 25,700 -2,634 Descending Oakland Center
Tue 09:13:17 PM 36.8506 -120.9297 318° Northwest 403 464 22,800 -2,607 Descending Oakland Center
Tue 09:14:18 PM 36.9319 -121.0219 318° Northwest 396 456 20,400 -2,410 Descending Oakland Center
Tue 09:15:19 PM 37.0111 -121.1125 318° Northwest 388 447 17,900 -2,213 Descending Oakland Center
Tue 09:16:20 PM 37.0756 -121.1881 317° Northwest 375 432 15,900 -2,213 Descending Oakland Center
Tue 09:17:21 PM 37.1592 -121.2833 318° Northwest 356 410 13,400 -2,361 Descending Oakland Center
Tue 09:18:22 PM 37.2308 -121.3703 316° Northwest 357 411 11,100 -1,623 Descending Oakland Center
Tue 09:19:23 PM 37.2994 -121.4506 317° Northwest 340 391 10,100 -1,180 Descending Oakland Center
Tue 09:20:24 PM 37.3608 -121.5208 318° Northwest 294 338 8,700 -1,376 Descending Oakland Center
Tue 09:21:12 PM 37.4167 -121.5833 318° Northwest 288 331 7,600 -1,111 Descending Northern TRACON
Tue 09:22:12 PM 37.4667 -121.6500 313° West 272 313 6,700 -800 Descending Northern TRACON
Tue 09:23:12 PM 37.5000 -121.7333 297° West 262 302 6,000 -350 Descending Northern TRACON
Tue 09:24:12 PM 37.5167 -121.8167 284° West 241 277 6,000 -500 Level Northern TRACON
Tue 09:25:12 PM 37.5500 -121.8833 302° West 231 266 5,000 -900 Descending Northern TRACON
Tue 09:26:12 PM 37.5667 -121.9667 284° West 224 258 4,200 -800 Descending Northern TRACON
Tue 09:27:12 PM 37.6000 -122.0333 302° West 213 245 3,400 -900 Descending Northern TRACON
Tue 09:28:12 PM 37.6167 -122.1000 288° West 206 237 2,400 -1,098 Descending Northern TRACON
Tue 09:28:34 PM 37.6303 -122.1142 321° Northwest 211 243 1,900 -940 Descending Oakland Center
Tue 09:29:35 PM 37.6608 -122.1536 314° West 174 200 1,100 -689 Descending Oakland Center
Tue 09:30:36 PM 37.6833 -122.1869 310° West 147 169 500 9,295 Descending Oakland Center
Tue 09:31:37 PM 37.7056 -122.2206 310° West 133 153 20,000 19,180 Climbing Oakland Center
Tue 09:33:00 PM 37.7167 -122.2167 270° West  Level FlightAware
Tue 09:40:00 PM 37.7213 -122.2207 270° West  Level Estimated
Tue 09:41:00 PM 37.7167 -122.2167 270° West  Level FlightAware
Tue 09:42:00 PM 37.7213 -122.2207 270° West  Level Estimated
Tue 09:43:00 PM 37.7167 -122.2167 270° West  Level FlightAware
Tue 09:44:00 PM 37.7213 -122.2207 270° West  Level Estimated
Tue 09:45:00 PM 37.7167 -122.2167 270° West  Level FlightAware
Tue 09:46:00 PM 37.7213 -122.2207 270° West  Level Estimated
Tue 09:47:00 PM 37.7167 -122.2167 270° West  Level FlightAware

Login

Don't have an account? Register now (free) for customized features, flight alerts, and more!